sensor_id;sensor_type;location;lat;lon;timestamp;P1;durP1;ratioP1;P2;durP2;ratioP2
75261;SDS011;63859;51.064;4.580;2023-03-14T00:02:21;6.77;;;1.70;;
75261;SDS011;63859;51.064;4.580;2023-03-14T00:04:46;9.03;;;2.10;;
75261;SDS011;63859;51.064;4.580;2023-03-14T00:07:12;7.33;;;1.37;;
75261;SDS011;63859;51.064;4.580;2023-03-14T00:09:38;8.00;;;1.80;;
75261;SDS011;63859;51.064;4.580;2023-03-14T00:12:04;6.73;;;1.53;;
75261;SDS011;63859;51.064;4.580;2023-03-14T00:14:31;5.33;;;1.60;;
75261;SDS011;63859;51.064;4.580;2023-03-14T00:16:57;4.57;;;1.50;;
75261;SDS011;63859;51.064;4.580;2023-03-14T00:19:22;10.90;;;1.80;;
75261;SDS011;63859;51.064;4.580;2023-03-14T00:21:48;7.83;;;1.70;;
75261;SDS011;63859;51.064;4.580;2023-03-14T00:24:14;5.30;;;1.60;;
75261;SDS011;63859;51.064;4.580;2023-03-14T00:26:39;5.47;;;1.50;;
75261;SDS011;63859;51.064;4.580;2023-03-14T00:29:05;7.27;;;1.63;;
75261;SDS011;63859;51.064;4.580;2023-03-14T00:31:31;11.77;;;2.30;;
75261;SDS011;63859;51.064;4.580;2023-03-14T00:33:56;7.63;;;1.80;;
75261;SDS011;63859;51.064;4.580;2023-03-14T00:36:22;8.20;;;1.60;;
75261;SDS011;63859;51.064;4.580;2023-03-14T00:38:49;7.73;;;1.90;;
75261;SDS011;63859;51.064;4.580;2023-03-14T00:41:17;7.73;;;1.70;;
75261;SDS011;63859;51.064;4.580;2023-03-14T00:43:45;9.23;;;2.00;;
75261;SDS011;63859;51.064;4.580;2023-03-14T00:46:11;5.77;;;1.67;;
75261;SDS011;63859;51.064;4.580;2023-03-14T00:48:37;5.63;;;1.80;;
75261;SDS011;63859;51.064;4.580;2023-03-14T00:51:04;8.20;;;2.17;;
75261;SDS011;63859;51.064;4.580;2023-03-14T00:53:30;11.23;;;2.10;;
75261;SDS011;63859;51.064;4.580;2023-03-14T00:55:55;11.00;;;2.50;;
75261;SDS011;63859;51.064;4.580;2023-03-14T00:58:21;10.50;;;2.63;;
75261;SDS011;63859;51.064;4.580;2023-03-14T01:00:47;9.13;;;2.23;;
75261;SDS011;63859;51.064;4.580;2023-03-14T01:03:13;7.23;;;1.80;;
75261;SDS011;63859;51.064;4.580;2023-03-14T01:05:39;7.50;;;1.77;;
75261;SDS011;63859;51.064;4.580;2023-03-14T01:08:06;8.73;;;2.20;;
75261;SDS011;63859;51.064;4.580;2023-03-14T01:10:32;11.87;;;2.03;;
75261;SDS011;63859;51.064;4.580;2023-03-14T01:12:58;6.83;;;2.20;;
75261;SDS011;63859;51.064;4.580;2023-03-14T01:15:24;13.33;;;2.77;;
75261;SDS011;63859;51.064;4.580;2023-03-14T01:17:49;15.37;;;2.40;;
75261;SDS011;63859;51.064;4.580;2023-03-14T01:20:16;12.57;;;2.70;;
75261;SDS011;63859;51.064;4.580;2023-03-14T01:22:42;10.83;;;2.00;;
75261;SDS011;63859;51.064;4.580;2023-03-14T01:25:09;14.23;;;3.00;;
75261;SDS011;63859;51.064;4.580;2023-03-14T01:27:37;9.77;;;2.37;;
75261;SDS011;63859;51.064;4.580;2023-03-14T01:30:03;10.03;;;2.20;;
75261;SDS011;63859;51.064;4.580;2023-03-14T01:32:30;13.43;;;3.43;;
75261;SDS011;63859;51.064;4.580;2023-03-14T01:34:55;11.67;;;2.23;;
75261;SDS011;63859;51.064;4.580;2023-03-14T01:37:21;11.10;;;2.53;;
75261;SDS011;63859;51.064;4.580;2023-03-14T01:39:47;13.73;;;2.33;;
75261;SDS011;63859;51.064;4.580;2023-03-14T01:42:13;12.00;;;2.57;;
75261;SDS011;63859;51.064;4.580;2023-03-14T01:47:24;10.50;;;2.50;;
75261;SDS011;63859;51.064;4.580;2023-03-14T01:49:53;11.53;;;2.70;;
75261;SDS011;63859;51.064;4.580;2023-03-14T01:52:28;11.33;;;2.23;;
75261;SDS011;63859;51.064;4.580;2023-03-14T01:55:20;7.77;;;2.27;;
75261;SDS011;63859;51.064;4.580;2023-03-14T01:58:04;13.73;;;2.20;;
75261;SDS011;63859;51.064;4.580;2023-03-14T02:00:30;14.93;;;2.60;;
75261;SDS011;63859;51.064;4.580;2023-03-14T02:02:57;12.23;;;2.40;;
75261;SDS011;63859;51.064;4.580;2023-03-14T02:05:28;8.63;;;2.03;;
75261;SDS011;63859;51.064;4.580;2023-03-14T02:08:01;8.53;;;2.33;;
75261;SDS011;63859;51.064;4.580;2023-03-14T02:10:33;7.87;;;1.83;;
75261;SDS011;63859;51.064;4.580;2023-03-14T02:13:03;11.17;;;2.50;;
75261;SDS011;63859;51.064;4.580;2023-03-14T02:15:30;7.37;;;1.53;;
75261;SDS011;63859;51.064;4.580;2023-03-14T02:17:57;8.00;;;2.10;;
75261;SDS011;63859;51.064;4.580;2023-03-14T02:22:50;14.53;;;2.43;;
75261;SDS011;63859;51.064;4.580;2023-03-14T02:25:17;5.63;;;1.80;;
75261;SDS011;63859;51.064;4.580;2023-03-14T02:28:00;7.17;;;2.10;;
75261;SDS011;63859;51.064;4.580;2023-03-14T02:30:27;9.40;;;2.00;;
75261;SDS011;63859;51.064;4.580;2023-03-14T02:33:00;12.30;;;2.27;;
75261;SDS011;63859;51.064;4.580;2023-03-14T02:35:44;7.27;;;2.47;;
75261;SDS011;63859;51.064;4.580;2023-03-14T02:38:45;7.83;;;2.00;;
75261;SDS011;63859;51.064;4.580;2023-03-14T02:41:15;7.13;;;1.80;;
75261;SDS011;63859;51.064;4.580;2023-03-14T02:43:41;5.07;;;1.80;;
75261;SDS011;63859;51.064;4.580;2023-03-14T02:46:08;7.93;;;2.03;;
75261;SDS011;63859;51.064;4.580;2023-03-14T02:48:45;4.97;;;1.70;;
75261;SDS011;63859;51.064;4.580;2023-03-14T02:51:16;5.70;;;1.40;;
75261;SDS011;63859;51.064;4.580;2023-03-14T02:53:42;4.53;;;1.53;;
75261;SDS011;63859;51.064;4.580;2023-03-14T02:56:08;6.30;;;1.70;;
75261;SDS011;63859;51.064;4.580;2023-03-14T02:58:35;4.60;;;1.40;;
75261;SDS011;63859;51.064;4.580;2023-03-14T03:01:01;5.67;;;1.17;;
75261;SDS011;63859;51.064;4.580;2023-03-14T03:03:26;4.77;;;1.37;;
75261;SDS011;63859;51.064;4.580;2023-03-14T03:05:53;7.77;;;1.57;;
75261;SDS011;63859;51.064;4.580;2023-03-14T03:08:20;8.10;;;1.60;;
75261;SDS011;63859;51.064;4.580;2023-03-14T03:10:49;7.23;;;1.60;;
75261;SDS011;63859;51.064;4.580;2023-03-14T03:13:15;5.47;;;1.40;;
75261;SDS011;63859;51.064;4.580;2023-03-14T03:15:41;5.67;;;1.60;;
75261;SDS011;63859;51.064;4.580;2023-03-14T03:18:07;9.80;;;1.80;;
75261;SDS011;63859;51.064;4.580;2023-03-14T03:20:33;7.03;;;2.57;;
75261;SDS011;63859;51.064;4.580;2023-03-14T03:22:59;9.73;;;2.13;;
75261;SDS011;63859;51.064;4.580;2023-03-14T03:25:24;2.97;;;1.50;;
75261;SDS011;63859;51.064;4.580;2023-03-14T03:27:50;6.20;;;2.07;;
75261;SDS011;63859;51.064;4.580;2023-03-14T03:30:16;6.00;;;1.90;;
75261;SDS011;63859;51.064;4.580;2023-03-14T03:32:42;7.93;;;1.83;;
75261;SDS011;63859;51.064;4.580;2023-03-14T03:35:07;7.63;;;1.90;;
75261;SDS011;63859;51.064;4.580;2023-03-14T03:37:34;6.43;;;2.10;;
75261;SDS011;63859;51.064;4.580;2023-03-14T03:40:00;4.57;;;1.97;;
75261;SDS011;63859;51.064;4.580;2023-03-14T03:42:26;6.33;;;2.37;;
75261;SDS011;63859;51.064;4.580;2023-03-14T03:44:52;5.93;;;2.10;;
75261;SDS011;63859;51.064;4.580;2023-03-14T03:47:18;3.90;;;2.10;;
75261;SDS011;63859;51.064;4.580;2023-03-14T03:49:43;10.63;;;2.53;;
75261;SDS011;63859;51.064;4.580;2023-03-14T03:52:09;6.07;;;2.50;;
75261;SDS011;63859;51.064;4.580;2023-03-14T03:54:35;7.90;;;2.43;;
75261;SDS011;63859;51.064;4.580;2023-03-14T03:57:01;12.63;;;3.37;;
75261;SDS011;63859;51.064;4.580;2023-03-14T03:59:26;11.53;;;3.37;;
75261;SDS011;63859;51.064;4.580;2023-03-14T04:01:52;8.63;;;2.50;;
75261;SDS011;63859;51.064;4.580;2023-03-14T04:04:17;8.63;;;2.90;;
75261;SDS011;63859;51.064;4.580;2023-03-14T04:06:43;14.70;;;3.00;;
75261;SDS011;63859;51.064;4.580;2023-03-14T04:09:09;11.53;;;3.00;;
75261;SDS011;63859;51.064;4.580;2023-03-14T04:11:36;11.57;;;3.20;;
75261;SDS011;63859;51.064;4.580;2023-03-14T04:14:03;11.23;;;2.83;;
75261;SDS011;63859;51.064;4.580;2023-03-14T04:16:29;14.73;;;3.37;;
75261;SDS011;63859;51.064;4.580;2023-03-14T04:18:56;10.77;;;3.30;;
75261;SDS011;63859;51.064;4.580;2023-03-14T04:21:22;15.40;;;2.87;;
75261;SDS011;63859;51.064;4.580;2023-03-14T04:23:48;6.40;;;3.47;;
75261;SDS011;63859;51.064;4.580;2023-03-14T04:26:14;9.43;;;3.13;;
75261;SDS011;63859;51.064;4.580;2023-03-14T04:28:40;7.00;;;3.23;;
75261;SDS011;63859;51.064;4.580;2023-03-14T04:31:07;10.40;;;3.57;;
75261;SDS011;63859;51.064;4.580;2023-03-14T04:33:37;9.43;;;3.27;;
75261;SDS011;63859;51.064;4.580;2023-03-14T04:36:03;9.87;;;3.93;;
75261;SDS011;63859;51.064;4.580;2023-03-14T04:38:30;15.67;;;3.70;;
75261;SDS011;63859;51.064;4.580;2023-03-14T04:40:56;10.07;;;3.87;;
75261;SDS011;63859;51.064;4.580;2023-03-14T04:43:22;11.67;;;3.97;;
75261;SDS011;63859;51.064;4.580;2023-03-14T04:45:47;9.23;;;3.50;;
75261;SDS011;63859;51.064;4.580;2023-03-14T04:48:13;10.03;;;3.83;;
75261;SDS011;63859;51.064;4.580;2023-03-14T04:50:38;10.00;;;3.53;;
75261;SDS011;63859;51.064;4.580;2023-03-14T04:53:04;10.50;;;3.90;;
75261;SDS011;63859;51.064;4.580;2023-03-14T04:55:30;10.00;;;3.30;;
75261;SDS011;63859;51.064;4.580;2023-03-14T04:57:57;8.00;;;3.40;;
75261;SDS011;63859;51.064;4.580;2023-03-14T05:00:24;9.90;;;3.40;;
75261;SDS011;63859;51.064;4.580;2023-03-14T05:02:50;8.57;;;3.03;;
75261;SDS011;63859;51.064;4.580;2023-03-14T05:05:15;5.87;;;2.70;;
75261;SDS011;63859;51.064;4.580;2023-03-14T05:07:41;9.30;;;3.00;;
75261;SDS011;63859;51.064;4.580;2023-03-14T05:10:07;5.47;;;2.47;;
75261;SDS011;63859;51.064;4.580;2023-03-14T05:12:33;6.63;;;2.80;;
75261;SDS011;63859;51.064;4.580;2023-03-14T05:14:59;6.10;;;2.67;;
75261;SDS011;63859;51.064;4.580;2023-03-14T05:17:24;7.17;;;2.57;;
75261;SDS011;63859;51.064;4.580;2023-03-14T05:19:50;8.20;;;2.40;;
75261;SDS011;63859;51.064;4.580;2023-03-14T05:22:15;6.87;;;2.80;;
75261;SDS011;63859;51.064;4.580;2023-03-14T05:24:41;7.47;;;2.53;;
75261;SDS011;63859;51.064;4.580;2023-03-14T05:27:06;8.87;;;2.50;;
75261;SDS011;63859;51.064;4.580;2023-03-14T05:29:32;7.30;;;3.03;;
75261;SDS011;63859;51.064;4.580;2023-03-14T05:31:58;6.63;;;2.60;;
75261;SDS011;63859;51.064;4.580;2023-03-14T05:34:23;5.50;;;2.40;;
75261;SDS011;63859;51.064;4.580;2023-03-14T05:36:49;6.43;;;2.50;;
75261;SDS011;63859;51.064;4.580;2023-03-14T05:39:14;6.40;;;2.43;;
75261;SDS011;63859;51.064;4.580;2023-03-14T05:41:40;6.97;;;2.60;;
75261;SDS011;63859;51.064;4.580;2023-03-14T05:44:05;6.27;;;2.27;;
75261;SDS011;63859;51.064;4.580;2023-03-14T05:46:31;3.83;;;2.40;;
75261;SDS011;63859;51.064;4.580;2023-03-14T05:48:57;9.33;;;2.73;;
75261;SDS011;63859;51.064;4.580;2023-03-14T05:51:23;5.50;;;2.50;;
75261;SDS011;63859;51.064;4.580;2023-03-14T05:53:49;5.23;;;2.70;;
75261;SDS011;63859;51.064;4.580;2023-03-14T05:56:15;7.33;;;2.50;;
75261;SDS011;63859;51.064;4.580;2023-03-14T05:58:40;6.47;;;2.67;;
75261;SDS011;63859;51.064;4.580;2023-03-14T06:01:06;3.30;;;2.00;;
75261;SDS011;63859;51.064;4.580;2023-03-14T06:03:33;3.97;;;2.40;;
75261;SDS011;63859;51.064;4.580;2023-03-14T06:05:58;3.17;;;2.43;;
75261;SDS011;63859;51.064;4.580;2023-03-14T06:08:24;5.47;;;2.87;;
75261;SDS011;63859;51.064;4.580;2023-03-14T06:10:50;5.17;;;2.70;;
75261;SDS011;63859;51.064;4.580;2023-03-14T06:13:16;7.20;;;2.70;;
75261;SDS011;63859;51.064;4.580;2023-03-14T06:15:42;5.47;;;2.80;;
75261;SDS011;63859;51.064;4.580;2023-03-14T06:18:08;5.10;;;2.43;;
75261;SDS011;63859;51.064;4.580;2023-03-14T06:20:37;7.23;;;2.57;;
75261;SDS011;63859;51.064;4.580;2023-03-14T06:23:04;7.13;;;2.80;;
75261;SDS011;63859;51.064;4.580;2023-03-14T06:25:31;4.07;;;2.67;;
75261;SDS011;63859;51.064;4.580;2023-03-14T06:27:57;4.40;;;2.73;;
75261;SDS011;63859;51.064;4.580;2023-03-14T06:30:23;5.40;;;2.60;;
75261;SDS011;63859;51.064;4.580;2023-03-14T06:32:49;4.83;;;2.90;;
75261;SDS011;63859;51.064;4.580;2023-03-14T06:35:14;5.80;;;3.07;;
75261;SDS011;63859;51.064;4.580;2023-03-14T06:37:40;7.97;;;2.73;;
75261;SDS011;63859;51.064;4.580;2023-03-14T06:40:06;3.37;;;2.37;;
75261;SDS011;63859;51.064;4.580;2023-03-14T06:42:33;5.93;;;2.60;;
75261;SDS011;63859;51.064;4.580;2023-03-14T06:44:58;4.73;;;2.90;;
75261;SDS011;63859;51.064;4.580;2023-03-14T06:47:24;4.70;;;2.80;;
75261;SDS011;63859;51.064;4.580;2023-03-14T06:49:49;5.70;;;2.77;;
75261;SDS011;63859;51.064;4.580;2023-03-14T06:52:15;3.33;;;2.17;;
75261;SDS011;63859;51.064;4.580;2023-03-14T06:54:41;3.70;;;1.83;;
75261;SDS011;63859;51.064;4.580;2023-03-14T06:57:06;3.13;;;1.93;;
75261;SDS011;63859;51.064;4.580;2023-03-14T06:59:32;3.50;;;1.70;;
75261;SDS011;63859;51.064;4.580;2023-03-14T07:01:57;5.23;;;2.33;;
75261;SDS011;63859;51.064;4.580;2023-03-14T07:04:23;3.20;;;1.70;;
75261;SDS011;63859;51.064;4.580;2023-03-14T07:06:48;4.77;;;2.13;;
75261;SDS011;63859;51.064;4.580;2023-03-14T07:09:14;5.37;;;2.43;;
75261;SDS011;63859;51.064;4.580;2023-03-14T07:11:42;5.57;;;2.53;;
75261;SDS011;63859;51.064;4.580;2023-03-14T07:14:07;5.53;;;3.00;;
75261;SDS011;63859;51.064;4.580;2023-03-14T07:16:33;5.17;;;2.57;;
75261;SDS011;63859;51.064;4.580;2023-03-14T07:18:59;6.87;;;2.37;;
75261;SDS011;63859;51.064;4.580;2023-03-14T07:21:26;6.57;;;2.17;;
75261;SDS011;63859;51.064;4.580;2023-03-14T07:23:52;5.27;;;1.70;;
75261;SDS011;63859;51.064;4.580;2023-03-14T07:26:17;2.90;;;1.20;;
75261;SDS011;63859;51.064;4.580;2023-03-14T07:28:43;4.40;;;1.30;;
75261;SDS011;63859;51.064;4.580;2023-03-14T07:31:09;5.60;;;1.40;;
75261;SDS011;63859;51.064;4.580;2023-03-14T07:33:34;4.93;;;1.30;;
75261;SDS011;63859;51.064;4.580;2023-03-14T07:36:00;8.27;;;1.40;;
75261;SDS011;63859;51.064;4.580;2023-03-14T07:38:26;3.87;;;1.70;;
75261;SDS011;63859;51.064;4.580;2023-03-14T07:40:57;2.40;;;1.20;;
75261;SDS011;63859;51.064;4.580;2023-03-14T07:43:24;3.90;;;0.93;;
75261;SDS011;63859;51.064;4.580;2023-03-14T07:45:49;6.63;;;1.50;;
75261;SDS011;63859;51.064;4.580;2023-03-14T07:48:15;2.37;;;1.30;;
75261;SDS011;63859;51.064;4.580;2023-03-14T07:50:41;6.10;;;1.60;;
75261;SDS011;63859;51.064;4.580;2023-03-14T07:53:06;7.30;;;2.07;;
75261;SDS011;63859;51.064;4.580;2023-03-14T07:55:32;6.93;;;1.90;;
75261;SDS011;63859;51.064;4.580;2023-03-14T07:57:57;6.57;;;2.10;;
75261;SDS011;63859;51.064;4.580;2023-03-14T08:00:23;4.50;;;1.83;;
75261;SDS011;63859;51.064;4.580;2023-03-14T08:02:49;5.40;;;2.40;;
75261;SDS011;63859;51.064;4.580;2023-03-14T08:05:14;7.63;;;1.90;;
75261;SDS011;63859;51.064;4.580;2023-03-14T08:07:40;5.80;;;1.87;;
75261;SDS011;63859;51.064;4.580;2023-03-14T08:10:06;1.60;;;1.50;;
75261;SDS011;63859;51.064;4.580;2023-03-14T08:12:32;5.83;;;2.23;;
75261;SDS011;63859;51.064;4.580;2023-03-14T08:14:57;10.20;;;2.53;;
75261;SDS011;63859;51.064;4.580;2023-03-14T08:17:24;3.60;;;2.00;;
75261;SDS011;63859;51.064;4.580;2023-03-14T08:19:50;7.93;;;2.27;;
75261;SDS011;63859;51.064;4.580;2023-03-14T08:22:15;6.07;;;2.00;;
75261;SDS011;63859;51.064;4.580;2023-03-14T08:24:41;4.17;;;2.00;;
75261;SDS011;63859;51.064;4.580;2023-03-14T08:27:07;9.00;;;2.37;;
75261;SDS011;63859;51.064;4.580;2023-03-14T08:29:32;4.80;;;1.93;;
75261;SDS011;63859;51.064;4.580;2023-03-14T08:31:58;6.63;;;1.63;;
75261;SDS011;63859;51.064;4.580;2023-03-14T08:34:24;4.80;;;1.80;;
75261;SDS011;63859;51.064;4.580;2023-03-14T08:36:49;5.43;;;1.43;;
75261;SDS011;63859;51.064;4.580;2023-03-14T08:39:15;3.07;;;1.70;;
75261;SDS011;63859;51.064;4.580;2023-03-14T08:41:40;2.40;;;1.40;;
75261;SDS011;63859;51.064;4.580;2023-03-14T08:44:08;4.03;;;1.37;;
75261;SDS011;63859;51.064;4.580;2023-03-14T08:46:33;3.27;;;1.40;;
75261;SDS011;63859;51.064;4.580;2023-03-14T08:49:00;3.83;;;1.40;;
75261;SDS011;63859;51.064;4.580;2023-03-14T08:51:25;6.50;;;1.70;;
75261;SDS011;63859;51.064;4.580;2023-03-14T08:53:51;4.50;;;1.60;;
75261;SDS011;63859;51.064;4.580;2023-03-14T08:56:16;3.70;;;1.70;;
75261;SDS011;63859;51.064;4.580;2023-03-14T08:58:42;5.07;;;1.27;;
75261;SDS011;63859;51.064;4.580;2023-03-14T09:01:09;2.07;;;1.00;;
75261;SDS011;63859;51.064;4.580;2023-03-14T09:03:35;3.43;;;1.30;;
75261;SDS011;63859;51.064;4.580;2023-03-14T09:06:03;4.40;;;1.20;;
75261;SDS011;63859;51.064;4.580;2023-03-14T09:08:29;3.73;;;1.20;;
75261;SDS011;63859;51.064;4.580;2023-03-14T09:10:55;4.77;;;1.40;;
75261;SDS011;63859;51.064;4.580;2023-03-14T09:13:21;2.30;;;1.30;;
75261;SDS011;63859;51.064;4.580;2023-03-14T09:15:50;3.73;;;1.20;;
75261;SDS011;63859;51.064;4.580;2023-03-14T09:18:19;7.53;;;1.93;;
75261;SDS011;63859;51.064;4.580;2023-03-14T09:20:45;5.03;;;1.20;;
75261;SDS011;63859;51.064;4.580;2023-03-14T09:23:11;3.47;;;1.80;;
75261;SDS011;63859;51.064;4.580;2023-03-14T09:25:37;6.97;;;2.27;;
75261;SDS011;63859;51.064;4.580;2023-03-14T09:28:03;6.27;;;2.30;;
75261;SDS011;63859;51.064;4.580;2023-03-14T09:30:29;5.47;;;2.30;;
75261;SDS011;63859;51.064;4.580;2023-03-14T09:32:55;6.30;;;2.37;;
75261;SDS011;63859;51.064;4.580;2023-03-14T09:35:22;4.13;;;2.17;;
75261;SDS011;63859;51.064;4.580;2023-03-14T09:37:47;7.10;;;2.20;;
75261;SDS011;63859;51.064;4.580;2023-03-14T09:40:14;3.83;;;2.17;;
75261;SDS011;63859;51.064;4.580;2023-03-14T09:42:41;2.97;;;1.93;;
75261;SDS011;63859;51.064;4.580;2023-03-14T09:45:17;4.10;;;1.93;;
75261;SDS011;63859;51.064;4.580;2023-03-14T09:47:50;4.67;;;1.40;;
75261;SDS011;63859;51.064;4.580;2023-03-14T09:50:15;3.63;;;1.40;;
75261;SDS011;63859;51.064;4.580;2023-03-14T09:52:45;3.07;;;1.10;;
75261;SDS011;63859;51.064;4.580;2023-03-14T09:55:19;3.07;;;1.33;;
75261;SDS011;63859;51.064;4.580;2023-03-14T09:57:47;2.93;;;1.20;;
75261;SDS011;63859;51.064;4.580;2023-03-14T10:00:19;1.43;;;1.10;;
75261;SDS011;63859;51.064;4.580;2023-03-14T10:02:50;1.50;;;1.27;;
75261;SDS011;63859;51.064;4.580;2023-03-14T10:05:20;2.83;;;1.93;;
75261;SDS011;63859;51.064;4.580;2023-03-14T10:07:48;4.23;;;2.20;;
75261;SDS011;63859;51.064;4.580;2023-03-14T10:10:16;2.60;;;2.33;;
75261;SDS011;63859;51.064;4.580;2023-03-14T10:12:44;5.20;;;1.90;;
75261;SDS011;63859;51.064;4.580;2023-03-14T10:15:39;5.10;;;2.30;;
75261;SDS011;63859;51.064;4.580;2023-03-14T10:18:09;4.97;;;2.50;;
75261;SDS011;63859;51.064;4.580;2023-03-14T10:20:41;1.93;;;1.80;;
75261;SDS011;63859;51.064;4.580;2023-03-14T10:25:42;2.73;;;1.47;;
75261;SDS011;63859;51.064;4.580;2023-03-14T10:31:03;2.10;;;1.63;;
75261;SDS011;63859;51.064;4.580;2023-03-14T10:33:33;2.83;;;1.57;;
75261;SDS011;63859;51.064;4.580;2023-03-14T10:38:27;2.43;;;2.00;;
75261;SDS011;63859;51.064;4.580;2023-03-14T10:40:55;2.00;;;1.80;;
75261;SDS011;63859;51.064;4.580;2023-03-14T10:43:23;5.90;;;2.20;;
75261;SDS011;63859;51.064;4.580;2023-03-14T10:46:08;3.57;;;2.40;;
75261;SDS011;63859;51.064;4.580;2023-03-14T10:48:37;4.27;;;2.33;;
75261;SDS011;63859;51.064;4.580;2023-03-14T10:53:50;5.13;;;2.40;;
75261;SDS011;63859;51.064;4.580;2023-03-14T10:56:21;3.03;;;2.20;;
75261;SDS011;63859;51.064;4.580;2023-03-14T10:58:49;5.10;;;2.23;;
75261;SDS011;63859;51.064;4.580;2023-03-14T11:03:48;7.73;;;2.30;;
75261;SDS011;63859;51.064;4.580;2023-03-14T11:06:28;8.10;;;2.20;;
75261;SDS011;63859;51.064;4.580;2023-03-14T11:09:56;8.33;;;1.90;;
75261;SDS011;63859;51.064;4.580;2023-03-14T11:15:35;6.17;;;1.80;;
75261;SDS011;63859;51.064;4.580;2023-03-14T11:20:54;7.20;;;2.10;;
75261;SDS011;63859;51.064;4.580;2023-03-14T11:26:35;7.97;;;1.50;;
75261;SDS011;63859;51.064;4.580;2023-03-14T11:29:22;8.83;;;2.17;;
75261;SDS011;63859;51.064;4.580;2023-03-14T11:32:02;8.13;;;1.83;;
75261;SDS011;63859;51.064;4.580;2023-03-14T11:34:49;9.33;;;1.90;;
75261;SDS011;63859;51.064;4.580;2023-03-14T11:37:33;7.33;;;1.83;;
75261;SDS011;63859;51.064;4.580;2023-03-14T11:40:05;7.60;;;1.70;;
75261;SDS011;63859;51.064;4.580;2023-03-14T11:42:56;3.97;;;1.60;;
75261;SDS011;63859;51.064;4.580;2023-03-14T11:45:44;7.20;;;1.70;;
75261;SDS011;63859;51.064;4.580;2023-03-14T11:48:17;4.23;;;2.00;;
75261;SDS011;63859;51.064;4.580;2023-03-14T11:50:59;9.67;;;2.00;;
75261;SDS011;63859;51.064;4.580;2023-03-14T11:53:36;6.70;;;2.07;;
75261;SDS011;63859;51.064;4.580;2023-03-14T11:56:03;5.53;;;1.83;;
75261;SDS011;63859;51.064;4.580;2023-03-14T11:58:34;6.20;;;2.70;;
75261;SDS011;63859;51.064;4.580;2023-03-14T12:01:07;6.70;;;2.13;;
75261;SDS011;63859;51.064;4.580;2023-03-14T12:09:16;10.43;;;2.67;;
75261;SDS011;63859;51.064;4.580;2023-03-14T12:11:45;10.20;;;2.50;;
75261;SDS011;63859;51.064;4.580;2023-03-14T12:14:32;15.80;;;2.80;;
75261;SDS011;63859;51.064;4.580;2023-03-14T12:17:07;24.07;;;5.23;;
75261;SDS011;63859;51.064;4.580;2023-03-14T12:20:02;26.10;;;8.73;;
75261;SDS011;63859;51.064;4.580;2023-03-14T12:22:35;21.73;;;4.10;;
75261;SDS011;63859;51.064;4.580;2023-03-14T12:25:19;16.13;;;3.70;;
75261;SDS011;63859;51.064;4.580;2023-03-14T12:35:39;18.83;;;2.80;;
75261;SDS011;63859;51.064;4.580;2023-03-14T12:38:27;15.20;;;3.10;;
75261;SDS011;63859;51.064;4.580;2023-03-14T12:41:12;15.67;;;2.93;;
75261;SDS011;63859;51.064;4.580;2023-03-14T12:43:45;12.07;;;3.07;;
75261;SDS011;63859;51.064;4.580;2023-03-14T12:48:49;21.93;;;2.90;;
75261;SDS011;63859;51.064;4.580;2023-03-14T12:51:57;13.07;;;3.00;;
75261;SDS011;63859;51.064;4.580;2023-03-14T13:04:50;21.50;;;3.30;;
75261;SDS011;63859;51.064;4.580;2023-03-14T13:12:38;17.30;;;4.13;;
75261;SDS011;63859;51.064;4.580;2023-03-14T13:15:22;18.33;;;3.43;;
75261;SDS011;63859;51.064;4.580;2023-03-14T13:18:23;21.60;;;3.97;;
75261;SDS011;63859;51.064;4.580;2023-03-14T13:20:56;21.47;;;5.90;;
75261;SDS011;63859;51.064;4.580;2023-03-14T13:23:27;27.03;;;7.53;;
75261;SDS011;63859;51.064;4.580;2023-03-14T13:25:56;28.83;;;5.70;;
75261;SDS011;63859;51.064;4.580;2023-03-14T13:28:22;23.40;;;5.07;;
75261;SDS011;63859;51.064;4.580;2023-03-14T13:30:49;29.27;;;5.10;;
75261;SDS011;63859;51.064;4.580;2023-03-14T13:33:21;15.33;;;3.60;;
75261;SDS011;63859;51.064;4.580;2023-03-14T13:35:58;18.80;;;2.93;;
75261;SDS011;63859;51.064;4.580;2023-03-14T13:38:26;23.43;;;3.00;;
75261;SDS011;63859;51.064;4.580;2023-03-14T13:40:56;17.33;;;2.47;;
75261;SDS011;63859;51.064;4.580;2023-03-14T13:43:33;15.03;;;2.77;;
75261;SDS011;63859;51.064;4.580;2023-03-14T13:46:16;13.10;;;3.23;;
75261;SDS011;63859;51.064;4.580;2023-03-14T13:48:53;14.83;;;2.67;;
75261;SDS011;63859;51.064;4.580;2023-03-14T13:51:25;15.17;;;2.70;;
75261;SDS011;63859;51.064;4.580;2023-03-14T13:53:56;11.87;;;2.40;;
75261;SDS011;63859;51.064;4.580;2023-03-14T13:56:24;15.43;;;2.77;;
75261;SDS011;63859;51.064;4.580;2023-03-14T13:58:51;12.90;;;2.50;;
75261;SDS011;63859;51.064;4.580;2023-03-14T14:01:33;10.30;;;2.40;;
75261;SDS011;63859;51.064;4.580;2023-03-14T14:04:06;8.17;;;2.20;;
75261;SDS011;63859;51.064;4.580;2023-03-14T14:06:35;5.27;;;1.83;;
75261;SDS011;63859;51.064;4.580;2023-03-14T14:09:15;6.53;;;2.00;;
75261;SDS011;63859;51.064;4.580;2023-03-14T14:14:23;9.57;;;2.60;;
75261;SDS011;63859;51.064;4.580;2023-03-14T14:17:04;7.03;;;2.10;;
75261;SDS011;63859;51.064;4.580;2023-03-14T14:19:33;6.30;;;2.07;;
75261;SDS011;63859;51.064;4.580;2023-03-14T14:22:00;15.10;;;2.43;;
75261;SDS011;63859;51.064;4.580;2023-03-14T14:24:28;12.93;;;2.00;;
75261;SDS011;63859;51.064;4.580;2023-03-14T14:27:00;9.17;;;2.13;;
75261;SDS011;63859;51.064;4.580;2023-03-14T14:29:33;9.17;;;2.33;;
75261;SDS011;63859;51.064;4.580;2023-03-14T14:32:03;8.33;;;2.47;;
75261;SDS011;63859;51.064;4.580;2023-03-14T14:34:56;7.93;;;1.70;;
75261;SDS011;63859;51.064;4.580;2023-03-14T14:39:51;5.83;;;1.30;;
75261;SDS011;63859;51.064;4.580;2023-03-14T14:42:19;7.27;;;1.20;;
75261;SDS011;63859;51.064;4.580;2023-03-14T14:44:49;5.53;;;1.37;;
75261;SDS011;63859;51.064;4.580;2023-03-14T14:47:17;8.87;;;1.50;;
75261;SDS011;63859;51.064;4.580;2023-03-14T14:49:46;10.50;;;1.57;;
75261;SDS011;63859;51.064;4.580;2023-03-14T14:52:17;8.53;;;1.40;;
75261;SDS011;63859;51.064;4.580;2023-03-14T14:55:01;5.90;;;1.20;;
75261;SDS011;63859;51.064;4.580;2023-03-14T14:57:28;4.30;;;1.10;;
75261;SDS011;63859;51.064;4.580;2023-03-14T15:00:04;6.20;;;1.30;;
75261;SDS011;63859;51.064;4.580;2023-03-14T15:02:40;3.50;;;1.27;;
75261;SDS011;63859;51.064;4.580;2023-03-14T15:05:12;6.87;;;1.87;;
75261;SDS011;63859;51.064;4.580;2023-03-14T15:07:39;25.50;;;3.60;;
75261;SDS011;63859;51.064;4.580;2023-03-14T15:10:04;5.27;;;1.70;;
75261;SDS011;63859;51.064;4.580;2023-03-14T15:12:31;8.13;;;1.90;;
75261;SDS011;63859;51.064;4.580;2023-03-14T15:14:57;4.67;;;1.53;;
75261;SDS011;63859;51.064;4.580;2023-03-14T15:17:22;8.97;;;2.30;;
75261;SDS011;63859;51.064;4.580;2023-03-14T15:19:49;12.40;;;1.90;;
75261;SDS011;63859;51.064;4.580;2023-03-14T15:22:14;9.20;;;1.93;;
75261;SDS011;63859;51.064;4.580;2023-03-14T15:24:40;11.97;;;2.43;;
75261;SDS011;63859;51.064;4.580;2023-03-14T15:27:13;8.83;;;2.30;;
75261;SDS011;63859;51.064;4.580;2023-03-14T15:29:41;10.23;;;1.90;;
75261;SDS011;63859;51.064;4.580;2023-03-14T15:32:09;10.17;;;2.30;;
75261;SDS011;63859;51.064;4.580;2023-03-14T15:34:37;8.70;;;2.10;;
75261;SDS011;63859;51.064;4.580;2023-03-14T15:37:03;11.47;;;2.07;;
75261;SDS011;63859;51.064;4.580;2023-03-14T15:39:32;4.10;;;1.70;;
75261;SDS011;63859;51.064;4.580;2023-03-14T15:41:59;6.33;;;2.13;;
75261;SDS011;63859;51.064;4.580;2023-03-14T15:44:25;19.53;;;2.90;;
75261;SDS011;63859;51.064;4.580;2023-03-14T15:46:50;18.73;;;2.73;;
75261;SDS011;63859;51.064;4.580;2023-03-14T15:49:16;10.97;;;2.80;;
75261;SDS011;63859;51.064;4.580;2023-03-14T15:51:41;7.37;;;2.20;;
75261;SDS011;63859;51.064;4.580;2023-03-14T15:54:07;14.93;;;3.10;;
75261;SDS011;63859;51.064;4.580;2023-03-14T15:56:32;8.90;;;2.27;;
75261;SDS011;63859;51.064;4.580;2023-03-14T15:58:58;9.73;;;2.63;;